createdAt,value
2017-12-02T00:01:41.170Z,4.23
2017-12-02T00:04:16.132Z,4.23
2017-12-02T00:06:51.344Z,4.21
2017-12-02T00:09:26.392Z,4.23
2017-12-02T00:12:01.412Z,4.23
2017-12-02T00:14:35.920Z,4.24
2017-12-02T00:17:11.257Z,4.23
2017-12-02T00:19:45.825Z,4.16
2017-12-02T00:22:20.885Z,4.15
2017-12-02T00:24:55.372Z,4.17
2017-12-02T00:27:29.936Z,4.18
2017-12-02T00:30:05.305Z,4.13
2017-12-02T00:32:40.172Z,4.11
2017-12-02T00:35:14.976Z,4.11
2017-12-02T00:37:50.206Z,4.11
2017-12-02T00:40:24.579Z,4.12
2017-12-02T00:42:59.861Z,4.11
2017-12-02T00:45:34.577Z,4.11
2017-12-02T00:48:09.632Z,4.10
2017-12-02T00:50:44.878Z,4.08
2017-12-02T00:53:19.848Z,4.09
2017-12-02T00:55:54.816Z,4.09
2017-12-02T00:58:29.719Z,4.07
2017-12-02T01:01:04.902Z,4.02
2017-12-02T01:03:39.927Z,3.97
2017-12-02T01:06:15.228Z,3.95
2017-12-02T01:08:50.156Z,3.92
2017-12-02T01:11:25.339Z,3.93
2017-12-02T01:13:59.648Z,3.95
2017-12-02T01:16:34.724Z,3.95
2017-12-02T01:19:10.040Z,3.96
2017-12-02T01:21:45.237Z,3.96
2017-12-02T01:24:19.498Z,3.98
2017-12-02T01:26:53.892Z,4.00
2017-12-02T01:29:29.254Z,3.99
2017-12-02T01:32:04.324Z,3.97
2017-12-02T01:34:39.329Z,3.95
2017-12-02T01:37:14.360Z,3.96
2017-12-02T01:39:49.644Z,3.95
2017-12-02T01:42:24.745Z,3.94
2017-12-02T01:44:59.665Z,3.94
2017-12-02T01:47:34.802Z,3.95
2017-12-02T01:50:09.692Z,3.93
2017-12-02T01:52:44.704Z,3.93
2017-12-02T01:55:19.733Z,3.92
2017-12-02T01:57:54.358Z,3.92
2017-12-02T02:00:29.056Z,3.91
2017-12-02T02:03:03.492Z,3.92
2017-12-02T02:05:38.562Z,3.92
2017-12-02T02:08:13.529Z,3.93
2017-12-02T02:10:48.500Z,3.95
2017-12-02T02:13:23.939Z,3.95
2017-12-02T02:15:58.861Z,3.93
2017-12-02T02:18:34.080Z,3.90
2017-12-02T02:21:09.316Z,3.89
2017-12-02T02:23:43.985Z,3.90
2017-12-02T02:26:19.145Z,3.92
2017-12-02T02:28:54.477Z,3.95
2017-12-02T02:31:29.514Z,3.92
2017-12-02T02:34:04.676Z,3.91
2017-12-02T02:36:39.510Z,3.91
2017-12-02T02:39:14.017Z,3.98
2017-12-02T02:41:49.120Z,4.01
2017-12-02T02:44:24.192Z,4.03
2017-12-02T02:46:59.234Z,4.03
2017-12-02T02:49:34.155Z,4.03
2017-12-02T02:52:09.092Z,4.03
2017-12-02T02:54:43.993Z,4.03
2017-12-02T02:57:18.825Z,4.03
2017-12-02T02:59:53.554Z,4.03
2017-12-02T03:02:28.575Z,3.99
2017-12-02T03:05:03.588Z,3.92
2017-12-02T03:07:38.777Z,3.89
2017-12-02T03:10:13.298Z,3.88
2017-12-02T03:12:48.056Z,3.88
2017-12-02T03:15:23.022Z,3.84
2017-12-02T03:17:57.800Z,3.84
2017-12-02T03:20:32.848Z,3.80
2017-12-02T03:23:07.709Z,3.83
2017-12-02T03:25:42.708Z,3.81
2017-12-02T03:28:17.612Z,3.84
2017-12-02T03:30:52.543Z,3.85
2017-12-02T03:33:27.492Z,3.87
2017-12-02T03:36:02.000Z,3.87
2017-12-02T03:38:36.648Z,3.82
2017-12-02T03:41:11.393Z,3.81
2017-12-02T03:43:45.733Z,3.84
2017-12-02T03:46:19.891Z,3.86
2017-12-02T03:48:54.729Z,3.89
2017-12-02T03:51:29.437Z,3.88
2017-12-02T03:54:04.389Z,3.83
2017-12-02T03:56:39.533Z,3.79
2017-12-02T03:59:14.107Z,3.75
2017-12-02T04:01:48.917Z,3.69
2017-12-02T04:04:23.748Z,3.69
2017-12-02T04:06:58.376Z,3.73
2017-12-02T04:09:33.277Z,3.79
2017-12-02T04:12:08.131Z,3.80
2017-12-02T04:14:42.631Z,3.86
2017-12-02T04:17:17.188Z,3.88
2017-12-02T04:19:51.984Z,3.90
2017-12-02T04:22:26.648Z,3.91
2017-12-02T04:25:01.245Z,3.91
2017-12-02T04:27:36.084Z,3.89
2017-12-02T04:30:10.709Z,3.92
2017-12-02T04:32:45.676Z,3.95
2017-12-02T04:35:19.869Z,3.97
2017-12-02T04:37:54.656Z,4.00
2017-12-02T04:40:29.199Z,3.96
2017-12-02T04:43:04.308Z,4.03
2017-12-02T04:45:39.372Z,4.04
2017-12-02T04:48:13.673Z,4.05
2017-12-02T04:50:48.796Z,4.03
2017-12-02T04:53:23.748Z,4.07
2017-12-02T04:55:58.800Z,4.06
2017-12-02T04:58:34.142Z,4.06
2017-12-02T05:01:08.716Z,4.02
2017-12-02T05:03:43.594Z,3.94
2017-12-02T05:06:18.516Z,3.88
2017-12-02T05:08:53.243Z,3.86
2017-12-02T05:11:27.976Z,3.82
2017-12-02T05:14:02.772Z,3.77
2017-12-02T05:16:37.041Z,3.81
2017-12-02T05:19:11.861Z,3.87
2017-12-02T05:21:46.433Z,3.88
2017-12-02T05:24:21.340Z,3.89
2017-12-02T05:26:56.052Z,3.92
2017-12-02T05:29:30.770Z,3.95
2017-12-02T05:32:05.509Z,3.98
2017-12-02T05:34:40.328Z,4.00
2017-12-02T05:37:14.658Z,3.99
2017-12-02T05:39:49.507Z,4.01
2017-12-02T05:42:23.825Z,4.00
2017-12-02T05:44:58.584Z,4.02
2017-12-02T05:47:33.493Z,4.05
2017-12-02T05:50:08.058Z,4.04
2017-12-02T05:52:42.948Z,4.04
2017-12-02T05:55:17.652Z,4.04
2017-12-02T05:57:52.816Z,4.05
2017-12-02T06:00:27.728Z,4.06
2017-12-02T06:03:01.989Z,4.07
2017-12-02T06:05:36.240Z,4.09
2017-12-02T06:08:11.199Z,4.06
2017-12-02T06:10:46.026Z,4.04
2017-12-02T06:13:20.609Z,4.03
2017-12-02T06:15:54.517Z,4.03
2017-12-02T06:18:29.221Z,4.06
2017-12-02T06:21:03.689Z,4.07
2017-12-02T06:23:38.765Z,4.05
2017-12-02T06:26:13.454Z,4.03
2017-12-02T06:28:48.020Z,4.04
2017-12-02T06:31:22.645Z,4.05
2017-12-02T06:33:57.573Z,4.03
2017-12-02T06:36:32.605Z,3.93
2017-12-02T06:39:07.040Z,3.93
2017-12-02T06:41:42.380Z,3.94
2017-12-02T06:44:16.320Z,3.91
2017-12-02T06:46:51.002Z,3.91
2017-12-02T06:49:25.616Z,3.87
2017-12-02T06:52:00.463Z,3.86
2017-12-02T06:54:35.120Z,3.89
2017-12-02T06:57:09.328Z,3.91
2017-12-02T06:59:44.412Z,3.92
2017-12-02T07:02:19.336Z,3.90
2017-12-02T07:04:53.932Z,3.89
2017-12-02T07:07:28.641Z,3.92
2017-12-02T07:10:03.546Z,3.95
2017-12-02T07:12:38.413Z,3.98
2017-12-02T07:15:13.203Z,4.00
2017-12-02T07:17:47.248Z,4.04
2017-12-02T07:20:22.072Z,4.00
2017-12-02T07:22:56.103Z,4.01
2017-12-02T07:25:31.127Z,3.92
2017-12-02T07:28:05.784Z,3.84
2017-12-02T07:30:40.605Z,3.84
2017-12-02T07:33:15.008Z,3.81
2017-12-02T07:35:49.804Z,3.75
2017-12-02T07:38:24.775Z,3.65
2017-12-02T07:40:59.495Z,3.66
2017-12-02T07:43:34.226Z,3.64
2017-12-02T07:46:08.698Z,3.70
2017-12-02T07:48:43.545Z,3.73
2017-12-02T07:51:18.014Z,3.58
2017-12-02T07:53:52.684Z,3.63
2017-12-02T07:56:27.540Z,3.61
2017-12-02T07:59:01.812Z,3.60
2017-12-02T08:01:36.592Z,3.60
2017-12-02T08:04:11.443Z,3.55
2017-12-02T08:06:46.193Z,3.60
2017-12-02T08:09:21.000Z,3.52
2017-12-02T08:11:55.901Z,3.46
2017-12-02T08:14:30.784Z,3.45
2017-12-02T08:17:05.565Z,3.44
2017-12-02T08:19:40.632Z,3.49
2017-12-02T08:22:16.860Z,3.49
2017-12-02T08:24:51.345Z,3.47
2017-12-02T08:27:25.425Z,3.50
2017-12-02T08:29:59.956Z,3.47
2017-12-02T08:32:34.762Z,3.42
2017-12-02T08:35:09.451Z,3.36
2017-12-02T08:37:44.358Z,3.32
2017-12-02T08:40:19.360Z,3.35
2017-12-02T08:42:54.420Z,3.43
2017-12-02T08:45:29.141Z,3.50
2017-12-02T08:48:04.051Z,3.54
2017-12-02T08:50:38.816Z,3.57
2017-12-02T08:53:13.694Z,3.60
2017-12-02T08:55:48.532Z,3.60
2017-12-02T08:58:23.188Z,3.59
2017-12-02T09:00:57.916Z,3.70
2017-12-02T09:03:32.500Z,3.71
2017-12-02T09:06:07.124Z,3.64
2017-12-02T09:08:41.856Z,3.56
2017-12-02T09:11:15.977Z,3.52
2017-12-02T09:13:51.053Z,3.48
2017-12-02T09:16:25.466Z,3.41
2017-12-02T09:19:00.488Z,3.49
2017-12-02T09:21:34.784Z,3.52
2017-12-02T09:24:09.108Z,3.45
2017-12-02T09:26:43.978Z,3.40
2017-12-02T09:29:18.792Z,3.37
2017-12-02T09:31:53.801Z,3.43
2017-12-02T09:34:28.648Z,3.47
2017-12-02T09:37:03.228Z,3.55
2017-12-02T09:39:38.111Z,3.53
2017-12-02T09:42:13.165Z,3.60
2017-12-02T09:44:47.435Z,3.65
2017-12-02T09:47:21.584Z,3.62
2017-12-02T09:49:56.334Z,3.56
2017-12-02T09:52:31.157Z,3.59
2017-12-02T09:55:05.248Z,3.59
2017-12-02T09:57:40.236Z,3.61
2017-12-02T10:00:15.141Z,3.59
2017-12-02T10:02:50.108Z,3.63
2017-12-02T10:05:24.895Z,3.59
2017-12-02T10:07:59.126Z,3.57
2017-12-02T10:10:33.711Z,3.59
2017-12-02T10:13:07.897Z,3.64
2017-12-02T10:15:42.477Z,3.58
2017-12-02T10:18:17.107Z,3.59
2017-12-02T10:20:51.925Z,3.57
2017-12-02T10:23:26.509Z,3.58
2017-12-02T10:26:01.211Z,3.62
2017-12-02T10:28:35.524Z,3.58
2017-12-02T10:31:10.032Z,3.58
2017-12-02T10:33:44.731Z,3.59
2017-12-02T10:36:19.400Z,3.55
2017-12-02T10:38:53.480Z,3.56
2017-12-02T10:41:28.456Z,3.52
2017-12-02T10:44:03.484Z,3.39
2017-12-02T10:46:38.460Z,3.22
2017-12-02T10:49:12.541Z,3.21
2017-12-02T10:51:47.344Z,3.25
2017-12-02T10:54:22.296Z,3.22
2017-12-02T10:56:56.900Z,3.23
2017-12-02T10:59:31.648Z,3.22
2017-12-02T11:02:06.277Z,3.24
2017-12-02T11:04:41.109Z,3.26
2017-12-02T11:07:16.322Z,3.33
2017-12-02T11:09:51.397Z,3.31
2017-12-02T11:12:26.269Z,3.30
2017-12-02T11:15:01.449Z,3.21
2017-12-02T11:17:36.433Z,3.20
2017-12-02T11:20:11.024Z,3.26
2017-12-02T11:22:46.028Z,3.26
2017-12-02T11:25:20.984Z,3.29
2017-12-02T11:27:55.992Z,3.28
2017-12-02T11:30:30.761Z,3.22
2017-12-02T11:33:05.472Z,3.21
2017-12-02T11:35:40.001Z,3.21
2017-12-02T11:38:14.301Z,3.23
2017-12-02T11:40:49.129Z,3.38
2017-12-02T11:43:23.976Z,3.42
2017-12-02T11:45:59.241Z,3.41
2017-12-02T11:48:33.863Z,3.36
2017-12-02T11:51:09.024Z,3.35
2017-12-02T11:53:43.837Z,3.37
2017-12-02T11:56:18.849Z,3.20
2017-12-02T11:58:53.482Z,3.23
2017-12-02T12:01:28.080Z,3.32
2017-12-02T12:04:03.344Z,3.31
2017-12-02T12:06:37.788Z,3.38
2017-12-02T12:09:13.037Z,3.42
2017-12-02T12:11:47.784Z,3.52
2017-12-02T12:14:22.768Z,3.56
2017-12-02T12:16:57.496Z,3.51
2017-12-02T12:19:32.176Z,3.54
2017-12-02T12:22:07.073Z,3.56
2017-12-02T12:24:42.034Z,3.54
2017-12-02T12:27:17.252Z,3.57
2017-12-02T12:29:51.988Z,3.57
2017-12-02T12:32:27.056Z,3.60
2017-12-02T12:35:02.146Z,3.62
2017-12-02T12:37:36.861Z,3.62
2017-12-02T12:40:11.868Z,3.59
2017-12-02T12:42:46.570Z,3.63
2017-12-02T12:45:21.350Z,3.64
2017-12-02T12:47:56.276Z,3.65
2017-12-02T12:50:31.031Z,3.64
2017-12-02T12:53:05.904Z,3.59
2017-12-02T12:55:40.860Z,3.53
2017-12-02T12:58:15.788Z,3.51
2017-12-02T13:00:50.712Z,3.48
2017-12-02T13:03:25.468Z,3.50
2017-12-02T13:06:00.496Z,3.57
2017-12-02T13:08:35.700Z,3.54
2017-12-02T13:11:10.708Z,3.51
2017-12-02T13:13:45.113Z,3.53
2017-12-02T13:16:19.565Z,3.52
2017-12-02T13:18:54.362Z,3.49
2017-12-02T13:21:29.449Z,3.44
2017-12-02T13:24:04.668Z,3.41
2017-12-02T13:26:40.045Z,3.47
2017-12-02T13:29:14.581Z,3.49
2017-12-02T13:31:49.833Z,3.50
2017-12-02T13:34:25.232Z,3.45
2017-12-02T13:37:00.536Z,3.41
2017-12-02T13:39:35.788Z,3.39
2017-12-02T13:42:10.216Z,3.22
2017-12-02T13:44:45.160Z,3.16
2017-12-02T13:47:20.185Z,3.21
2017-12-02T13:49:55.203Z,3.23
2017-12-02T13:52:30.044Z,3.14
2017-12-02T13:55:05.012Z,3.09
2017-12-02T13:57:39.936Z,3.07
2017-12-02T14:00:14.964Z,3.12
2017-12-02T14:02:50.025Z,3.13
2017-12-02T14:05:24.758Z,3.19
2017-12-02T14:07:59.812Z,3.18
2017-12-02T14:10:34.631Z,3.27
2017-12-02T14:13:09.086Z,3.35
2017-12-02T14:15:44.408Z,3.37
2017-12-02T14:18:19.236Z,3.43
2017-12-02T14:20:54.556Z,3.48
2017-12-02T14:23:29.765Z,3.44
2017-12-02T14:26:04.888Z,3.41
2017-12-02T14:28:39.333Z,3.34
2017-12-02T14:31:14.545Z,3.29
2017-12-02T14:33:49.104Z,3.68
2017-12-02T14:36:23.593Z,4.44
2017-12-02T14:38:58.456Z,5.02
2017-12-02T14:41:33.584Z,5.34
2017-12-02T14:44:08.936Z,5.41
2017-12-02T14:46:43.840Z,5.69
2017-12-02T14:49:18.597Z,5.71
2017-12-02T14:51:53.649Z,5.87
2017-12-02T14:54:28.477Z,5.91
2017-12-02T14:57:03.778Z,5.65
2017-12-02T14:59:38.788Z,5.76
2017-12-02T15:02:13.489Z,6.00
2017-12-02T15:04:48.184Z,6.34
2017-12-02T15:07:23.024Z,6.19
2017-12-02T15:09:57.767Z,5.65
2017-12-02T15:12:32.413Z,4.95
2017-12-02T15:15:06.638Z,4.30
2017-12-02T15:17:41.932Z,3.89
2017-12-02T15:20:16.592Z,3.60
2017-12-02T15:22:51.637Z,3.38
2017-12-02T15:25:26.389Z,3.29
2017-12-02T15:28:01.218Z,3.22
2017-12-02T15:30:36.200Z,3.08
2017-12-02T15:33:10.977Z,2.98
2017-12-02T15:35:45.878Z,2.91
2017-12-02T15:38:21.100Z,2.85
2017-12-02T15:40:56.117Z,2.83
2017-12-02T15:43:31.016Z,2.86
2017-12-02T15:46:05.500Z,2.88
2017-12-02T15:48:39.952Z,2.90
2017-12-02T15:51:15.040Z,2.91
2017-12-02T15:53:49.961Z,2.93
2017-12-02T15:56:24.640Z,2.94
2017-12-02T15:58:59.300Z,2.92
2017-12-02T16:01:34.020Z,2.85
2017-12-02T16:04:09.029Z,2.84
2017-12-02T16:06:43.533Z,2.87
2017-12-02T16:09:18.336Z,2.87
2017-12-02T16:11:53.297Z,2.81
2017-12-02T16:14:27.797Z,2.81
2017-12-02T16:17:02.635Z,2.71
2017-12-02T16:19:37.196Z,2.70
2017-12-02T16:22:12.223Z,2.75
2017-12-02T16:24:46.929Z,2.73
2017-12-02T16:27:21.663Z,2.72
2017-12-02T16:29:56.959Z,2.73
2017-12-02T16:32:31.769Z,2.73
2017-12-02T16:35:06.593Z,2.74
2017-12-02T16:37:41.217Z,2.72
2017-12-02T16:40:15.977Z,2.71
2017-12-02T16:42:50.980Z,2.64
2017-12-02T16:45:26.233Z,2.64
2017-12-02T16:48:01.260Z,2.56
2017-12-02T16:50:36.326Z,2.53
2017-12-02T16:53:10.816Z,2.49
2017-12-02T16:55:44.941Z,2.56
2017-12-02T16:58:19.850Z,2.53
2017-12-02T17:00:54.925Z,2.49
2017-12-02T17:03:30.108Z,2.41
2017-12-02T17:06:04.630Z,2.36
2017-12-02T17:08:39.801Z,2.34
2017-12-02T17:11:14.914Z,2.42
2017-12-02T17:13:49.706Z,2.47
2017-12-02T17:16:24.933Z,2.43
2017-12-02T17:19:00.028Z,2.40
2017-12-02T17:21:34.707Z,2.39
2017-12-02T17:24:09.685Z,2.36
2017-12-02T17:26:44.937Z,2.31
2017-12-02T17:29:19.645Z,2.32
2017-12-02T17:31:54.118Z,2.31
2017-12-02T17:34:28.805Z,2.23
2017-12-02T17:37:03.731Z,2.12
2017-12-02T17:39:38.136Z,2.08
2017-12-02T17:42:12.754Z,2.16
2017-12-02T17:44:47.474Z,2.15
2017-12-02T17:47:22.743Z,2.21
2017-12-02T17:49:57.823Z,2.40
2017-12-02T17:52:32.552Z,2.79
2017-12-02T17:55:07.342Z,2.86
2017-12-02T17:57:42.628Z,2.70
2017-12-02T18:00:17.681Z,2.53
2017-12-02T18:02:52.215Z,2.44
2017-12-02T18:05:26.789Z,2.34
2017-12-02T18:08:02.025Z,2.32
2017-12-02T18:10:37.108Z,2.22
2017-12-02T18:13:12.349Z,2.18
2017-12-02T18:15:47.392Z,2.20
2017-12-02T18:18:22.361Z,2.13
2017-12-02T18:20:57.226Z,2.06
2017-12-02T18:23:32.344Z,1.98
2017-12-02T18:26:07.169Z,1.96
2017-12-02T18:28:42.083Z,1.96
2017-12-02T18:31:16.811Z,1.88
2017-12-02T18:33:51.684Z,1.96
2017-12-02T18:36:26.871Z,1.98
2017-12-02T18:39:01.935Z,1.97
2017-12-02T18:41:37.060Z,1.97
2017-12-02T18:44:12.220Z,1.97
2017-12-02T18:46:47.248Z,1.94
2017-12-02T18:49:22.425Z,1.89
2017-12-02T18:51:57.520Z,1.87
2017-12-02T18:54:32.451Z,1.86
2017-12-02T18:57:07.165Z,1.89
2017-12-02T18:59:42.424Z,1.90
2017-12-02T19:02:17.765Z,1.85
2017-12-02T19:04:52.911Z,1.90
2017-12-02T19:07:27.154Z,1.91
2017-12-02T19:10:01.664Z,1.96
2017-12-02T19:12:36.798Z,1.98
2017-12-02T19:15:12.120Z,2.02
2017-12-02T19:17:47.472Z,1.99
2017-12-02T19:20:22.298Z,1.96
2017-12-02T19:22:56.807Z,1.94
2017-12-02T19:25:32.160Z,1.91
2017-12-02T19:28:06.930Z,1.85
2017-12-02T19:30:42.236Z,1.89
2017-12-02T19:33:17.388Z,1.82
2017-12-02T19:35:52.306Z,1.69
2017-12-02T19:38:27.019Z,1.64
2017-12-02T19:41:02.072Z,1.66
2017-12-02T19:43:36.805Z,1.71
2017-12-02T19:46:12.055Z,1.67
2017-12-02T19:48:46.957Z,1.65
2017-12-02T19:51:21.841Z,1.60
2017-12-02T19:53:56.764Z,1.57
2017-12-02T19:56:31.593Z,1.53
2017-12-02T19:59:06.385Z,1.55
2017-12-02T20:01:41.631Z,1.54
2017-12-02T20:04:15.676Z,1.55
2017-12-02T20:06:50.616Z,1.54
2017-12-02T20:09:25.424Z,1.49
2017-12-02T20:12:00.460Z,1.47
2017-12-02T20:14:35.296Z,1.50
2017-12-02T20:17:10.325Z,1.56
2017-12-02T20:19:44.827Z,1.63
2017-12-02T20:22:19.469Z,1.67
2017-12-02T20:24:54.336Z,1.64
2017-12-02T20:27:29.652Z,1.65
2017-12-02T20:30:03.903Z,1.63
2017-12-02T20:32:39.096Z,1.65
2017-12-02T20:35:13.837Z,1.73
2017-12-02T20:37:48.981Z,1.74
2017-12-02T20:40:24.040Z,1.78
2017-12-02T20:42:58.808Z,1.76
2017-12-02T20:45:33.900Z,1.80
2017-12-02T20:48:08.986Z,1.79
2017-12-02T20:50:44.132Z,1.82
2017-12-02T20:53:18.944Z,1.79
2017-12-02T20:55:54.325Z,1.87
2017-12-02T20:58:29.232Z,1.84
2017-12-02T21:01:04.057Z,1.84
2017-12-02T21:03:38.857Z,1.85
2017-12-02T21:06:13.332Z,1.87
2017-12-02T21:08:48.281Z,1.86
2017-12-02T21:11:23.291Z,1.86
2017-12-02T21:13:58.046Z,1.88
2017-12-02T21:16:32.981Z,1.91
2017-12-02T21:19:07.806Z,1.97
2017-12-02T21:21:43.162Z,1.94
2017-12-02T21:24:17.607Z,1.96
2017-12-02T21:26:52.721Z,1.96
2017-12-02T21:29:27.311Z,1.92
2017-12-02T21:32:01.866Z,1.94
2017-12-02T21:34:37.394Z,1.92
2017-12-02T21:37:12.740Z,1.99
2017-12-02T21:39:47.896Z,2.01
2017-12-02T21:42:22.604Z,1.99
2017-12-02T21:44:57.446Z,1.91
2017-12-02T21:47:32.484Z,1.92
2017-12-02T21:50:07.511Z,1.96
2017-12-02T21:52:42.320Z,1.97
2017-12-02T21:55:17.372Z,1.92
2017-12-02T21:57:51.692Z,1.94
2017-12-02T22:00:26.201Z,1.86
2017-12-02T22:03:01.377Z,1.95
2017-12-02T22:05:36.405Z,1.98
2017-12-02T22:08:11.312Z,2.04
2017-12-02T22:10:46.328Z,2.21
2017-12-02T22:13:21.012Z,2.39
2017-12-02T22:15:55.504Z,2.59
2017-12-02T22:18:30.159Z,2.76
2017-12-02T22:21:05.279Z,2.81
2017-12-02T22:23:40.308Z,2.74
2017-12-02T22:26:15.257Z,2.59
2017-12-02T22:28:49.792Z,2.54
2017-12-02T22:31:25.098Z,2.43
2017-12-02T22:34:00.344Z,2.36
2017-12-02T22:36:35.472Z,2.35
2017-12-02T22:39:10.596Z,2.31
2017-12-02T22:41:45.344Z,2.29
2017-12-02T22:44:19.754Z,2.35
2017-12-02T22:46:54.619Z,2.44
2017-12-02T22:49:30.080Z,2.55
2017-12-02T22:52:04.874Z,2.51
2017-12-02T22:54:40.120Z,2.39
2017-12-02T22:57:14.251Z,2.36
2017-12-02T22:59:49.603Z,2.43
2017-12-02T23:02:24.400Z,2.55
2017-12-02T23:04:59.517Z,2.56
2017-12-02T23:07:34.266Z,2.51
2017-12-02T23:10:09.088Z,2.51
2017-12-02T23:12:44.086Z,2.58
2017-12-02T23:15:18.620Z,2.59
2017-12-02T23:17:53.433Z,2.63
2017-12-02T23:20:28.349Z,2.57
2017-12-02T23:23:03.172Z,2.54
2017-12-02T23:25:37.343Z,2.66
2017-12-02T23:28:12.633Z,2.77
2017-12-02T23:30:47.755Z,2.83
2017-12-02T23:33:22.933Z,2.87
2017-12-02T23:35:58.064Z,2.85
2017-12-02T23:38:32.996Z,2.77
2017-12-02T23:41:07.863Z,2.71
2017-12-02T23:43:42.693Z,2.55
2017-12-02T23:46:17.589Z,2.50
2017-12-02T23:48:52.716Z,2.64
2017-12-02T23:51:27.637Z,2.72
2017-12-02T23:54:02.884Z,2.78
2017-12-02T23:56:38.120Z,2.75
2017-12-02T23:59:13.228Z,2.63
